createdAt,value
2023-03-22T00:00:12.895Z,4.43
2023-03-22T00:00:44.683Z,4.10
2023-03-22T00:01:19.906Z,4.30
2023-03-22T00:01:53.810Z,4.63
2023-03-22T00:02:26.438Z,4.33
2023-03-22T00:02:58.375Z,4.10
2023-03-22T00:03:30.379Z,4.97
2023-03-22T00:04:02.250Z,4.87
2023-03-22T00:04:34.069Z,4.97
2023-03-22T00:05:06.424Z,4.13
2023-03-22T00:05:40.068Z,4.10
2023-03-22T00:06:12.505Z,4.50
2023-03-22T00:06:44.250Z,4.17
2023-03-22T00:07:15.986Z,4.30
2023-03-22T00:07:50.386Z,3.87
2023-03-22T00:08:22.134Z,4.00
2023-03-22T00:08:54.642Z,4.17
2023-03-22T00:09:26.467Z,4.63
2023-03-22T00:09:58.230Z,4.47
2023-03-22T00:10:30.001Z,3.80
2023-03-22T00:11:02.709Z,3.70
2023-03-22T00:11:34.630Z,4.47
2023-03-22T00:12:06.640Z,4.20
2023-03-22T00:12:38.371Z,4.23
2023-03-22T00:13:11.586Z,3.83
2023-03-22T00:13:44.045Z,3.80
2023-03-22T00:14:15.889Z,3.87
2023-03-22T00:14:48.832Z,4.17
2023-03-22T00:15:20.716Z,3.57
2023-03-22T00:15:52.522Z,3.67
2023-03-22T00:16:24.731Z,3.73
2023-03-22T00:16:56.677Z,3.57
2023-03-22T00:17:28.636Z,3.97
2023-03-22T00:18:02.168Z,3.77
2023-03-22T00:18:33.917Z,3.67
2023-03-22T00:19:05.665Z,4.30
2023-03-22T00:19:37.565Z,4.70
2023-03-22T00:20:11.537Z,4.33
2023-03-22T00:20:54.604Z,4.10
2023-03-22T00:21:26.368Z,3.77
2023-03-22T00:21:58.131Z,3.63
2023-03-22T00:22:29.952Z,3.83
2023-03-22T00:23:01.712Z,3.63
2023-03-22T00:23:33.484Z,3.60
2023-03-22T00:24:05.452Z,4.17
2023-03-22T00:24:37.714Z,4.27
2023-03-22T00:25:10.555Z,3.57
2023-03-22T00:25:44.349Z,3.87
2023-03-22T00:26:17.501Z,4.10
2023-03-22T00:26:49.271Z,3.83
2023-03-22T00:27:21.140Z,4.03
2023-03-22T00:27:53.325Z,4.07
2023-03-22T00:28:25.419Z,4.13
2023-03-22T00:28:57.160Z,4.00
2023-03-22T00:29:28.942Z,3.73
2023-03-22T00:30:00.886Z,4.20
2023-03-22T00:30:32.605Z,4.43
2023-03-22T00:31:05.457Z,4.17
2023-03-22T00:31:37.240Z,4.20
2023-03-22T00:32:09.002Z,3.90
2023-03-22T00:32:42.558Z,3.93
2023-03-22T00:33:14.345Z,4.07
2023-03-22T00:33:46.154Z,3.97
2023-03-22T00:34:18.124Z,4.37
2023-03-22T00:34:49.981Z,4.00
2023-03-22T00:35:21.823Z,3.70
2023-03-22T00:36:13.828Z,3.93
2023-03-22T00:36:45.543Z,3.90
2023-03-22T00:37:18.032Z,3.37
2023-03-22T00:37:51.749Z,3.23
2023-03-22T00:38:35.844Z,3.70
2023-03-22T00:39:13.069Z,3.20
2023-03-22T00:39:45.027Z,3.30
2023-03-22T00:40:18.342Z,3.47
2023-03-22T00:40:50.221Z,3.57
2023-03-22T00:41:23.322Z,3.77
2023-03-22T00:41:55.130Z,3.80
2023-03-22T00:42:27.243Z,3.53
2023-03-22T00:42:59.431Z,3.70
2023-03-22T00:43:31.276Z,3.37
2023-03-22T00:44:02.997Z,3.47
2023-03-22T00:44:34.835Z,3.13
2023-03-22T00:45:09.016Z,3.17
2023-03-22T00:45:41.212Z,3.43
2023-03-22T00:46:14.555Z,3.37
2023-03-22T00:46:46.356Z,3.17
2023-03-22T00:47:18.267Z,3.20
2023-03-22T00:47:50.362Z,3.80
2023-03-22T00:48:22.809Z,3.33
2023-03-22T00:48:54.564Z,3.23
2023-03-22T00:49:27.332Z,3.53
2023-03-22T00:49:59.461Z,3.57
2023-03-22T00:50:31.232Z,3.77
2023-03-22T00:51:03.393Z,4.00
2023-03-22T00:51:35.124Z,3.77
2023-03-22T00:52:06.882Z,3.60
2023-03-22T00:52:38.661Z,3.43
2023-03-22T00:53:10.418Z,3.17
2023-03-22T00:53:43.654Z,3.37
2023-03-22T00:54:17.100Z,4.00
2023-03-22T00:54:48.946Z,3.40
2023-03-22T00:55:20.759Z,3.40
2023-03-22T00:55:52.580Z,3.27
2023-03-22T00:56:25.660Z,3.23
2023-03-22T00:56:57.374Z,3.30
2023-03-22T00:57:29.131Z,3.57
2023-03-22T00:58:01.081Z,3.43
2023-03-22T00:58:33.342Z,3.43
2023-03-22T00:59:05.258Z,3.60
2023-03-22T00:59:38.712Z,3.30
2023-03-22T01:00:16.207Z,3.47
2023-03-22T01:00:48.542Z,3.50
2023-03-22T01:01:20.546Z,3.37
2023-03-22T01:01:52.328Z,3.53
2023-03-22T01:02:29.687Z,3.53
2023-03-22T01:03:04.756Z,3.27
2023-03-22T01:03:36.674Z,3.53
2023-03-22T01:04:08.577Z,3.20
2023-03-22T01:04:47.981Z,3.03
2023-03-22T01:05:22.068Z,3.83
2023-03-22T01:05:56.789Z,3.40
2023-03-22T01:06:28.599Z,3.17
2023-03-22T01:07:02.146Z,3.33
2023-03-22T01:07:33.916Z,3.47
2023-03-22T01:08:09.278Z,3.37
2023-03-22T01:08:41.165Z,3.47
2023-03-22T01:09:15.066Z,3.53
2023-03-22T01:09:48.676Z,3.53
2023-03-22T01:10:20.497Z,3.70
2023-03-22T01:10:52.643Z,3.80
2023-03-22T01:11:24.694Z,3.53
2023-03-22T01:11:57.899Z,3.33
2023-03-22T01:12:29.664Z,3.47
2023-03-22T01:13:01.441Z,2.97
2023-03-22T01:13:33.599Z,3.20
2023-03-22T01:14:05.278Z,3.53
2023-03-22T01:14:37.059Z,3.27
2023-03-22T01:15:10.385Z,3.43
2023-03-22T01:15:42.235Z,3.70
2023-03-22T01:16:13.983Z,3.53
2023-03-22T01:16:45.827Z,3.67
2023-03-22T01:17:17.648Z,3.60
2023-03-22T01:17:49.426Z,3.43
2023-03-22T01:18:22.400Z,3.20
2023-03-22T01:18:54.158Z,2.97
2023-03-22T01:19:27.496Z,3.13
2023-03-22T01:19:59.380Z,3.13
2023-03-22T01:20:32.324Z,3.17
2023-03-22T01:21:04.415Z,3.17
2023-03-22T01:21:36.218Z,3.47
2023-03-22T01:22:08.957Z,3.17
2023-03-22T01:22:41.091Z,3.23
2023-03-22T01:23:12.863Z,3.13
2023-03-22T01:23:44.719Z,3.27
2023-03-22T01:24:16.911Z,3.37
2023-03-22T01:24:50.140Z,3.30
2023-03-22T01:25:21.938Z,3.67
2023-03-22T01:25:53.701Z,3.33
2023-03-22T01:26:25.490Z,3.30
2023-03-22T01:26:57.544Z,3.63
2023-03-22T01:27:29.288Z,3.63
2023-03-22T01:28:02.776Z,3.50
2023-03-22T01:28:34.558Z,3.23
2023-03-22T01:29:06.381Z,3.23
2023-03-22T01:29:38.182Z,3.40
2023-03-22T01:30:11.200Z,3.47
2023-03-22T01:30:43.170Z,3.87
2023-03-22T01:31:14.979Z,3.53
2023-03-22T01:31:46.748Z,3.33
2023-03-22T01:32:18.471Z,3.90
2023-03-22T01:32:50.342Z,3.47
2023-03-22T01:33:22.703Z,3.83
2023-03-22T01:33:54.441Z,3.93
2023-03-22T01:34:26.857Z,3.73
2023-03-22T01:34:58.818Z,3.23
2023-03-22T01:35:30.967Z,3.07
2023-03-22T01:36:02.748Z,3.27
2023-03-22T01:36:34.541Z,2.97
2023-03-22T01:37:06.309Z,3.30
2023-03-22T01:37:38.075Z,2.97
2023-03-22T01:38:09.928Z,2.73
2023-03-22T01:38:41.741Z,2.93
2023-03-22T01:39:13.578Z,3.33
2023-03-22T01:39:45.543Z,3.20
2023-03-22T01:40:17.980Z,3.07
2023-03-22T01:40:49.749Z,3.53
2023-03-22T01:41:22.162Z,3.53
2023-03-22T01:41:53.941Z,3.10
2023-03-22T01:42:26.705Z,3.03
2023-03-22T01:42:58.606Z,3.53
2023-03-22T01:43:30.625Z,3.00
2023-03-22T01:44:11.305Z,3.07
2023-03-22T01:44:47.104Z,3.07
2023-03-22T01:45:35.074Z,3.23
2023-03-22T01:46:06.876Z,3.20
2023-03-22T01:46:40.329Z,2.70
2023-03-22T01:47:12.139Z,2.93
2023-03-22T01:47:52.300Z,2.97
2023-03-22T01:48:35.798Z,2.80
2023-03-22T01:49:13.537Z,2.57
2023-03-22T01:49:45.428Z,3.50
2023-03-22T01:50:18.453Z,3.33
2023-03-22T01:51:15.351Z,3.13
2023-03-22T01:51:51.117Z,2.93
2023-03-22T01:52:22.898Z,2.90
2023-03-22T01:52:57.509Z,2.97
2023-03-22T01:53:34.139Z,3.17
2023-03-22T01:54:29.394Z,2.73
2023-03-22T01:55:01.929Z,2.87
2023-03-22T01:55:34.262Z,3.27
2023-03-22T01:56:06.522Z,3.10
2023-03-22T01:56:41.298Z,3.23
2023-03-22T01:57:13.590Z,2.80
2023-03-22T01:57:46.056Z,3.20
2023-03-22T01:58:18.343Z,3.20
2023-03-22T01:58:52.110Z,2.93
2023-03-22T01:59:25.206Z,2.70
2023-03-22T01:59:57.590Z,2.40
2023-03-22T02:00:29.800Z,2.77
2023-03-22T02:01:01.999Z,3.00
2023-03-22T02:01:35.454Z,3.13
2023-03-22T02:02:07.997Z,3.20
2023-03-22T02:02:40.170Z,2.67
2023-03-22T02:03:15.772Z,2.67
2023-03-22T02:04:03.157Z,2.87
2023-03-22T02:04:39.199Z,2.87
2023-03-22T02:05:12.383Z,2.83
2023-03-22T02:05:44.492Z,2.83
2023-03-22T02:06:18.039Z,2.77
2023-03-22T02:06:55.724Z,2.53
2023-03-22T02:07:28.000Z,3.03
2023-03-22T02:07:59.844Z,2.80
2023-03-22T02:08:33.625Z,2.33
2023-03-22T02:09:11.235Z,2.80
2023-03-22T02:09:43.481Z,3.03
2023-03-22T02:10:19.180Z,2.93
2023-03-22T02:10:52.046Z,2.57
2023-03-22T02:11:41.710Z,2.67
2023-03-22T02:12:39.610Z,2.83
2023-03-22T02:13:38.957Z,2.97
2023-03-22T02:14:48.817Z,2.83
2023-03-22T02:15:42.973Z,3.23
2023-03-22T02:16:38.282Z,2.83
2023-03-22T02:17:13.256Z,2.73
2023-03-22T02:17:51.424Z,2.60
2023-03-22T02:18:38.884Z,2.37
2023-03-22T02:19:42.389Z,2.57
2023-03-22T02:20:38.869Z,2.23
2023-03-22T02:21:40.842Z,2.30
2023-03-22T02:22:39.099Z,2.53
2023-03-22T02:23:22.879Z,2.80
2023-03-22T02:24:28.312Z,3.37
2023-03-22T02:25:33.950Z,3.10
2023-03-22T02:26:44.124Z,3.03
2023-03-22T02:27:54.253Z,3.23
2023-03-22T02:28:43.992Z,3.03
2023-03-22T02:29:39.808Z,3.23
2023-03-22T02:30:39.508Z,3.57
2023-03-22T02:31:39.296Z,2.93
2023-03-22T02:32:29.994Z,3.27
2023-03-22T02:33:19.789Z,3.20
2023-03-22T02:34:28.818Z,3.13
2023-03-22T02:35:32.023Z,3.53
2023-03-22T02:36:39.327Z,3.90
2023-03-22T02:37:33.922Z,3.73
2023-03-22T02:38:26.988Z,3.90
2023-03-22T02:39:08.490Z,3.13
2023-03-22T02:39:52.132Z,3.67
2023-03-22T02:40:41.704Z,4.00
2023-03-22T02:41:25.556Z,3.17
2023-03-22T02:42:03.142Z,3.43
2023-03-22T02:42:52.765Z,3.27
2023-03-22T02:43:48.532Z,3.10
2023-03-22T02:44:23.345Z,2.87
2023-03-22T02:44:57.952Z,3.50
2023-03-22T02:45:38.239Z,3.93
2023-03-22T02:46:23.607Z,3.40
2023-03-22T02:47:04.947Z,3.40
2023-03-22T02:47:39.283Z,3.40
2023-03-22T02:48:22.721Z,3.63
2023-03-22T02:49:02.757Z,2.90
2023-03-22T02:49:50.160Z,3.47
2023-03-22T02:50:46.628Z,4.13
2023-03-22T02:51:25.862Z,3.70
2023-03-22T02:52:39.418Z,3.73
2023-03-22T02:53:23.810Z,3.63
2023-03-22T02:54:08.361Z,3.70
2023-03-22T02:54:50.824Z,3.43
2023-03-22T02:55:52.225Z,3.63
2023-03-22T02:56:54.320Z,3.17
2023-03-22T02:57:44.052Z,3.53
2023-03-22T02:58:22.257Z,3.87
2023-03-22T02:58:59.640Z,3.67
2023-03-22T02:59:37.722Z,3.87
2023-03-22T03:00:14.170Z,4.00
2023-03-22T03:00:51.174Z,3.77
2023-03-22T03:01:29.861Z,3.97
2023-03-22T03:02:04.589Z,4.07
2023-03-22T03:02:41.581Z,3.90
2023-03-22T03:03:18.404Z,4.03
2023-03-22T03:03:55.208Z,3.83
2023-03-22T03:04:34.672Z,3.70
2023-03-22T03:05:08.681Z,3.60
2023-03-22T03:05:48.931Z,3.87
2023-03-22T03:06:25.848Z,3.83
2023-03-22T03:07:09.483Z,3.80
2023-03-22T03:07:46.760Z,4.10
2023-03-22T03:08:21.156Z,3.87
2023-03-22T03:08:54.617Z,3.43
2023-03-22T03:09:26.788Z,3.93
2023-03-22T03:09:58.967Z,4.13
2023-03-22T03:10:31.617Z,3.83
2023-03-22T03:11:03.552Z,3.57
2023-03-22T03:11:36.665Z,3.47
2023-03-22T03:12:23.729Z,3.57
2023-03-22T03:12:55.504Z,3.60
2023-03-22T03:13:27.619Z,3.23
2023-03-22T03:13:59.541Z,3.43
2023-03-22T03:14:32.777Z,3.03
2023-03-22T03:15:14.857Z,3.63
2023-03-22T03:15:52.797Z,3.50
2023-03-22T03:16:29.460Z,4.20
2023-03-22T03:17:13.310Z,4.07
2023-03-22T03:17:56.565Z,3.43
2023-03-22T03:19:05.625Z,4.03
2023-03-22T03:20:03.816Z,3.77
2023-03-22T03:21:07.569Z,4.13
2023-03-22T03:21:59.633Z,4.00
2023-03-22T03:23:08.590Z,4.27
2023-03-22T03:23:49.698Z,4.00
2023-03-22T03:24:31.749Z,3.90
2023-03-22T03:25:23.560Z,3.97
2023-03-22T03:25:58.050Z,3.60
2023-03-22T03:26:40.727Z,3.67
2023-03-22T03:27:23.677Z,3.67
2023-03-22T03:28:30.078Z,3.63
2023-03-22T03:29:05.466Z,3.60
2023-03-22T03:29:53.041Z,4.13
2023-03-22T03:30:33.893Z,3.63
2023-03-22T03:31:11.817Z,4.37
2023-03-22T03:32:07.604Z,4.50
2023-03-22T03:32:53.747Z,4.03
2023-03-22T03:33:33.205Z,4.07
2023-03-22T03:34:30.098Z,4.13
2023-03-22T03:35:10.972Z,4.47
2023-03-22T03:36:00.126Z,4.43
2023-03-22T03:36:37.924Z,4.40
2023-03-22T03:37:15.986Z,4.37
2023-03-22T03:37:54.030Z,3.87
2023-03-22T03:38:30.896Z,4.07
2023-03-22T03:39:08.050Z,4.07
2023-03-22T03:39:46.704Z,4.87
2023-03-22T03:40:24.757Z,5.80
2023-03-22T03:41:03.957Z,6.83
2023-03-22T03:41:37.104Z,7.97
2023-03-22T03:42:13.901Z,8.33
2023-03-22T03:42:51.969Z,8.87
2023-03-22T03:43:25.719Z,9.23
2023-03-22T03:43:59.554Z,9.53
2023-03-22T03:44:36.055Z,9.73
2023-03-22T03:45:09.145Z,9.60
2023-03-22T03:45:41.720Z,9.13
2023-03-22T03:46:14.734Z,9.20
2023-03-22T03:46:48.341Z,9.17
2023-03-22T03:47:21.058Z,9.43
2023-03-22T03:47:59.097Z,9.33
2023-03-22T03:48:35.071Z,8.93
2023-03-22T03:49:10.107Z,9.10
2023-03-22T03:49:42.279Z,9.17
2023-03-22T03:50:16.617Z,8.97
2023-03-22T03:50:52.502Z,9.83
2023-03-22T03:51:27.308Z,10.27
2023-03-22T03:52:00.119Z,9.20
2023-03-22T03:52:32.481Z,9.97
2023-03-22T03:53:04.450Z,9.30
2023-03-22T03:53:36.245Z,8.87
2023-03-22T03:54:08.027Z,9.03
2023-03-22T03:54:39.975Z,9.53
2023-03-22T03:55:11.930Z,8.80
2023-03-22T03:55:43.820Z,9.23
2023-03-22T03:56:15.723Z,9.27
2023-03-22T03:56:48.037Z,9.73
2023-03-22T03:57:19.804Z,9.70
2023-03-22T03:57:51.632Z,9.53
2023-03-22T03:58:23.493Z,9.27
2023-03-22T03:58:55.763Z,9.70
2023-03-22T03:59:27.569Z,10.40
2023-03-22T03:59:59.372Z,9.67
2023-03-22T04:00:31.285Z,9.23
2023-03-22T04:01:04.182Z,8.80
2023-03-22T04:01:36.529Z,9.17
2023-03-22T04:02:08.917Z,8.73
2023-03-22T04:02:44.158Z,7.83
2023-03-22T04:03:16.190Z,8.87
2023-03-22T04:03:50.747Z,9.07
2023-03-22T04:04:29.547Z,9.07
2023-03-22T04:05:01.654Z,8.80
2023-03-22T04:05:34.086Z,9.13
2023-03-22T04:06:06.555Z,8.60
2023-03-22T04:06:39.571Z,9.47
2023-03-22T04:07:11.569Z,9.00
2023-03-22T04:07:43.357Z,8.53
2023-03-22T04:08:15.407Z,8.10
2023-03-22T04:08:53.609Z,9.00
2023-03-22T04:09:28.053Z,9.03
2023-03-22T04:10:00.247Z,9.50
2023-03-22T04:10:32.016Z,9.27
2023-03-22T04:11:03.889Z,9.27
2023-03-22T04:11:36.108Z,8.97
2023-03-22T04:12:11.575Z,9.73
2023-03-22T04:12:43.297Z,9.60
2023-03-22T04:13:15.094Z,9.93
2023-03-22T04:13:46.905Z,9.93
2023-03-22T04:14:18.852Z,10.13
2023-03-22T04:14:50.686Z,10.37
2023-03-22T04:15:22.941Z,10.60
2023-03-22T04:15:57.276Z,11.17
2023-03-22T04:16:29.141Z,10.47
2023-03-22T04:17:01.317Z,9.53
2023-03-22T04:17:33.124Z,10.30
2023-03-22T04:18:05.144Z,10.77
2023-03-22T04:18:37.131Z,10.77
2023-03-22T04:19:08.965Z,10.37
2023-03-22T04:19:42.306Z,10.07
2023-03-22T04:20:14.634Z,10.80
2023-03-22T04:20:47.243Z,11.50
2023-03-22T04:21:19.885Z,11.13
2023-03-22T04:21:53.331Z,10.90
2023-03-22T04:22:26.413Z,10.33
2023-03-22T04:22:58.204Z,10.43
2023-03-22T04:23:29.992Z,10.20
2023-03-22T04:24:01.837Z,11.17
2023-03-22T04:24:33.608Z,11.10
2023-03-22T04:25:11.823Z,10.87
2023-03-22T04:25:43.826Z,11.00
2023-03-22T04:26:16.040Z,11.43
2023-03-22T04:26:48.109Z,11.03
2023-03-22T04:27:21.615Z,11.93
2023-03-22T04:27:55.918Z,11.93
2023-03-22T04:28:27.698Z,12.37
2023-03-22T04:28:59.733Z,11.63
2023-03-22T04:29:32.344Z,11.50
2023-03-22T04:30:05.956Z,12.13
2023-03-22T04:30:39.058Z,12.13
2023-03-22T04:31:11.048Z,12.27
2023-03-22T04:31:42.963Z,11.80
2023-03-22T04:32:23.038Z,11.67
2023-03-22T04:32:55.034Z,12.47
2023-03-22T04:33:26.759Z,11.13
2023-03-22T04:34:00.543Z,11.63
2023-03-22T04:34:32.663Z,11.90
2023-03-22T04:35:05.569Z,11.63
2023-03-22T04:35:37.392Z,11.70
2023-03-22T04:36:16.216Z,11.60
2023-03-22T04:36:48.052Z,11.77
2023-03-22T04:37:22.608Z,11.40
2023-03-22T04:37:54.441Z,12.70
2023-03-22T04:38:26.293Z,12.50
2023-03-22T04:38:58.333Z,12.00
2023-03-22T04:39:30.197Z,12.97
2023-03-22T04:40:02.155Z,12.87
2023-03-22T04:40:36.745Z,12.97
2023-03-22T04:41:09.068Z,12.50
2023-03-22T04:41:40.881Z,12.30
2023-03-22T04:42:13.143Z,12.83
2023-03-22T04:42:45.657Z,12.07
2023-03-22T04:43:19.007Z,11.70
2023-03-22T04:43:51.048Z,11.23
2023-03-22T04:44:22.893Z,11.37
2023-03-22T04:44:54.637Z,11.80
2023-03-22T04:45:29.338Z,12.10
2023-03-22T04:46:04.307Z,12.30
2023-03-22T04:46:37.214Z,11.60
2023-03-22T04:47:09.065Z,11.20
2023-03-22T04:47:40.937Z,11.20
2023-03-22T04:48:12.753Z,11.53
2023-03-22T04:48:44.727Z,12.27
2023-03-22T04:49:17.118Z,11.87
2023-03-22T04:49:48.942Z,11.43
2023-03-22T04:50:20.964Z,12.20
2023-03-22T04:50:53.519Z,13.27
2023-03-22T04:51:26.680Z,12.87
2023-03-22T04:51:58.492Z,12.43
2023-03-22T04:52:30.294Z,12.37
2023-03-22T04:53:02.058Z,12.77
2023-03-22T04:53:38.832Z,12.47
2023-03-22T04:54:10.646Z,12.57
2023-03-22T04:54:42.466Z,12.60
2023-03-22T04:55:14.266Z,12.97
2023-03-22T04:55:46.033Z,12.60
2023-03-22T04:56:18.101Z,12.70
2023-03-22T04:56:50.760Z,12.67
2023-03-22T04:57:22.804Z,12.30
2023-03-22T04:57:54.916Z,12.43
2023-03-22T04:58:27.769Z,12.53
2023-03-22T04:58:59.584Z,11.83
2023-03-22T04:59:31.376Z,12.33
2023-03-22T05:00:07.840Z,13.67
2023-03-22T05:00:42.516Z,12.73
2023-03-22T05:01:17.554Z,13.07
2023-03-22T05:01:51.657Z,12.77
2023-03-22T05:02:23.712Z,14.33
2023-03-22T05:02:56.582Z,13.03
2023-03-22T05:03:28.628Z,12.57
2023-03-22T05:04:00.552Z,12.77
2023-03-22T05:04:32.465Z,12.77
2023-03-22T05:05:04.823Z,12.80
2023-03-22T05:05:36.687Z,13.30
2023-03-22T05:06:10.215Z,13.37
2023-03-22T05:06:42.637Z,13.47
2023-03-22T05:07:14.459Z,13.13
2023-03-22T05:07:46.383Z,14.10
2023-03-22T05:08:18.659Z,13.80
2023-03-22T05:08:50.638Z,13.00
2023-03-22T05:09:23.627Z,14.00
2023-03-22T05:09:55.533Z,13.03
2023-03-22T05:10:27.331Z,13.53
2023-03-22T05:11:04.568Z,14.37
2023-03-22T05:11:37.159Z,13.70
2023-03-22T05:12:08.995Z,13.90
2023-03-22T05:12:41.007Z,14.50
2023-03-22T05:13:12.804Z,14.07
2023-03-22T05:13:44.630Z,13.77
2023-03-22T05:14:16.533Z,12.93
2023-03-22T05:14:48.445Z,13.07
2023-03-22T05:15:20.260Z,12.60
2023-03-22T05:15:52.289Z,12.93
2023-03-22T05:16:25.541Z,13.07
2023-03-22T05:16:57.725Z,12.60
2023-03-22T05:17:29.527Z,12.70
2023-03-22T05:18:01.340Z,12.60
2023-03-22T05:18:33.583Z,12.77
2023-03-22T05:19:06.759Z,12.57
2023-03-22T05:19:38.699Z,13.17
2023-03-22T05:20:11.728Z,12.27
2023-03-22T05:20:44.338Z,13.10
2023-03-22T05:21:22.087Z,13.30
2023-03-22T05:21:58.673Z,13.23
2023-03-22T05:22:30.472Z,11.70
2023-03-22T05:23:05.409Z,12.33
2023-03-22T05:23:37.202Z,11.93
2023-03-22T05:24:09.106Z,11.60
2023-03-22T05:24:40.876Z,12.40
2023-03-22T05:25:12.735Z,12.00
2023-03-22T05:25:45.320Z,11.83
2023-03-22T05:26:20.550Z,12.13
2023-03-22T05:26:54.023Z,11.53
2023-03-22T05:27:31.762Z,11.37
2023-03-22T05:28:04.293Z,11.57
2023-03-22T05:28:37.578Z,12.77
2023-03-22T05:29:10.974Z,12.50
2023-03-22T05:29:45.111Z,13.03
2023-03-22T05:30:17.033Z,13.90
2023-03-22T05:30:50.092Z,14.07
2023-03-22T05:31:22.603Z,16.20
2023-03-22T05:31:54.496Z,17.63
2023-03-22T05:32:29.418Z,18.90
2023-03-22T05:33:04.012Z,21.67
2023-03-22T05:33:35.984Z,23.63
2023-03-22T05:34:08.218Z,24.90
2023-03-22T05:34:42.886Z,24.83
2023-03-22T05:35:14.699Z,24.13
2023-03-22T05:35:46.597Z,23.07
2023-03-22T05:36:20.814Z,23.27
2023-03-22T05:36:52.632Z,22.27
2023-03-22T05:37:24.581Z,21.43
2023-03-22T05:37:57.663Z,20.17
2023-03-22T05:38:29.572Z,19.13
2023-03-22T05:39:01.505Z,18.30
2023-03-22T05:39:33.481Z,18.03
2023-03-22T05:40:10.026Z,16.93
2023-03-22T05:40:42.115Z,18.90
2023-03-22T05:41:14.832Z,17.00
2023-03-22T05:41:46.967Z,16.17
2023-03-22T05:42:18.765Z,15.90
2023-03-22T05:42:50.987Z,15.37
2023-03-22T05:43:22.895Z,14.53
2023-03-22T05:43:55.176Z,14.50
2023-03-22T05:44:27.029Z,14.20
2023-03-22T05:44:58.797Z,13.77
2023-03-22T05:45:32.537Z,14.93
2023-03-22T05:46:08.834Z,15.63
2023-03-22T05:46:40.957Z,14.27
2023-03-22T05:47:12.910Z,14.67
2023-03-22T05:47:44.829Z,14.73
2023-03-22T05:48:17.212Z,15.30
2023-03-22T05:48:49.070Z,18.13
2023-03-22T05:49:20.922Z,15.80
2023-03-22T05:49:53.113Z,15.83
2023-03-22T05:50:25.443Z,15.37
2023-03-22T05:50:57.248Z,15.40
2023-03-22T05:51:29.923Z,15.70
2023-03-22T05:52:04.409Z,16.40
2023-03-22T05:52:36.840Z,17.27
2023-03-22T05:53:08.748Z,17.10
2023-03-22T05:53:40.720Z,15.67
2023-03-22T05:54:12.480Z,15.93
2023-03-22T05:54:44.287Z,16.40
2023-03-22T05:55:19.938Z,16.67
2023-03-22T05:55:53.071Z,16.57
2023-03-22T05:56:25.972Z,16.87
2023-03-22T05:56:58.875Z,16.80
2023-03-22T05:57:30.662Z,16.77
2023-03-22T05:58:03.288Z,16.90
2023-03-22T05:58:35.227Z,15.57
2023-03-22T05:59:07.478Z,15.10
2023-03-22T05:59:39.304Z,15.37
2023-03-22T06:00:15.253Z,15.23
2023-03-22T06:00:50.007Z,16.00
2023-03-22T06:01:23.221Z,15.63
2023-03-22T06:01:55.536Z,16.03
2023-03-22T06:02:27.681Z,16.93
2023-03-22T06:03:03.965Z,17.13
2023-03-22T06:03:36.036Z,17.83
2023-03-22T06:04:07.917Z,19.53
2023-03-22T06:04:41.785Z,18.30
2023-03-22T06:05:16.085Z,18.47
2023-03-22T06:05:50.810Z,18.87
2023-03-22T06:06:24.017Z,17.83
2023-03-22T06:06:56.137Z,16.67
2023-03-22T06:07:27.951Z,17.60
2023-03-22T06:08:00.423Z,18.23
2023-03-22T06:08:33.815Z,18.13
2023-03-22T06:09:16.569Z,18.53
2023-03-22T06:09:50.338Z,19.17
2023-03-22T06:10:23.072Z,18.00
2023-03-22T06:10:55.056Z,18.40
2023-03-22T06:11:26.891Z,19.90
2023-03-22T06:11:59.303Z,19.33
2023-03-22T06:12:31.591Z,19.73
2023-03-22T06:13:03.433Z,19.87
2023-03-22T06:13:35.478Z,21.10
2023-03-22T06:14:07.284Z,19.97
2023-03-22T06:14:39.129Z,20.90
2023-03-22T06:15:11.945Z,21.30
2023-03-22T06:15:43.727Z,21.03
2023-03-22T06:16:16.278Z,20.93
2023-03-22T06:16:48.256Z,21.77
2023-03-22T06:17:20.339Z,21.23
2023-03-22T06:17:52.180Z,21.27
2023-03-22T06:18:24.057Z,21.77
2023-03-22T06:18:56.111Z,22.53
2023-03-22T06:19:28.132Z,22.70
2023-03-22T06:20:00.093Z,22.07
2023-03-22T06:20:31.958Z,22.47
2023-03-22T06:21:03.914Z,22.60
2023-03-22T06:21:35.798Z,23.00
2023-03-22T06:22:07.666Z,23.60
2023-03-22T06:22:40.419Z,22.87
2023-03-22T06:23:12.300Z,22.97
2023-03-22T06:23:44.166Z,24.30
2023-03-22T06:24:16.232Z,24.20
2023-03-22T06:24:49.587Z,23.90
2023-03-22T06:25:21.368Z,22.93
2023-03-22T06:25:53.309Z,22.53
2023-03-22T06:26:25.109Z,22.83
2023-03-22T06:26:56.957Z,23.53
2023-03-22T06:27:29.266Z,23.70
2023-03-22T06:28:02.805Z,24.10
2023-03-22T06:28:34.577Z,22.67
2023-03-22T06:29:06.639Z,23.10
2023-03-22T06:29:38.540Z,22.00
2023-03-22T06:30:10.542Z,22.10
2023-03-22T06:30:42.777Z,24.20
2023-03-22T06:31:14.769Z,25.10
2023-03-22T06:31:47.965Z,23.63
2023-03-22T06:32:21.009Z,23.67
2023-03-22T06:32:52.962Z,22.83
2023-03-22T06:33:24.847Z,23.70
2023-03-22T06:33:56.716Z,23.23
2023-03-22T06:34:28.911Z,24.20
2023-03-22T06:35:00.789Z,23.47
2023-03-22T06:35:33.691Z,24.00
2023-03-22T06:36:06.167Z,23.33
2023-03-22T06:36:37.975Z,21.97
2023-03-22T06:37:09.746Z,22.33
2023-03-22T06:37:41.954Z,22.43
2023-03-22T06:38:13.772Z,23.17
2023-03-22T06:38:45.634Z,22.27
2023-03-22T06:39:17.437Z,22.83
2023-03-22T06:39:49.438Z,22.67
2023-03-22T06:40:21.352Z,23.07
2023-03-22T06:40:53.185Z,22.90
2023-03-22T06:41:25.413Z,23.43
2023-03-22T06:41:57.294Z,23.90
2023-03-22T06:42:31.048Z,24.87
2023-03-22T06:43:06.845Z,23.77
2023-03-22T06:43:39.073Z,23.47
2023-03-22T06:44:11.154Z,23.93
2023-03-22T06:44:44.699Z,22.63
2023-03-22T06:45:16.955Z,22.80
2023-03-22T06:45:49.067Z,22.50
2023-03-22T06:46:20.925Z,24.50
2023-03-22T06:46:52.796Z,24.07
2023-03-22T06:47:25.029Z,24.37
2023-03-22T06:47:56.906Z,24.47
2023-03-22T06:48:28.824Z,24.20
2023-03-22T06:49:00.869Z,24.40
2023-03-22T06:49:32.980Z,24.93
2023-03-22T06:50:23.597Z,24.23
2023-03-22T06:50:55.514Z,27.00
2023-03-22T06:51:27.357Z,26.00
2023-03-22T06:52:02.131Z,24.53
2023-03-22T06:52:34.005Z,24.77
2023-03-22T06:53:06.513Z,25.00
2023-03-22T06:53:38.382Z,24.57
2023-03-22T06:54:12.743Z,26.37
2023-03-22T06:54:45.361Z,26.97
2023-03-22T06:55:17.189Z,27.90
2023-03-22T06:55:49.176Z,28.00
2023-03-22T06:56:21.033Z,48.00
2023-03-22T06:56:52.874Z,73.83
2023-03-22T06:57:24.928Z,43.77
2023-03-22T06:57:56.727Z,30.00
2023-03-22T06:58:28.543Z,28.07
2023-03-22T06:59:00.505Z,28.63
2023-03-22T06:59:32.260Z,26.90
2023-03-22T07:00:05.393Z,27.83
2023-03-22T07:00:39.089Z,56.57
2023-03-22T07:01:11.377Z,91.73
2023-03-22T07:01:43.306Z,61.67
2023-03-22T07:02:15.566Z,53.47
2023-03-22T07:02:47.409Z,95.30
2023-03-22T07:03:19.241Z,102.30
2023-03-22T07:03:51.924Z,87.03
2023-03-22T07:04:25.174Z,52.50
2023-03-22T07:04:57.116Z,46.07
2023-03-22T07:05:29.307Z,63.83
2023-03-22T07:06:06.081Z,53.90
2023-03-22T07:06:37.908Z,52.10
2023-03-22T07:07:09.795Z,45.43
2023-03-22T07:07:44.328Z,40.67
2023-03-22T07:08:16.843Z,33.43
2023-03-22T07:08:50.742Z,30.13
2023-03-22T07:09:25.031Z,28.17
2023-03-22T07:09:57.227Z,28.30
2023-03-22T07:10:30.017Z,27.23
2023-03-22T07:11:01.982Z,25.70
2023-03-22T07:11:34.175Z,25.27
2023-03-22T07:12:07.143Z,26.13
2023-03-22T07:12:39.286Z,27.13
2023-03-22T07:13:11.250Z,28.33
2023-03-22T07:13:43.242Z,26.70
2023-03-22T07:14:15.076Z,26.13
2023-03-22T07:14:46.976Z,25.37
2023-03-22T07:15:20.313Z,23.90
2023-03-22T07:16:00.261Z,24.40
2023-03-22T07:16:32.164Z,24.63
2023-03-22T07:17:22.561Z,24.80
2023-03-22T07:17:54.392Z,23.60
2023-03-22T07:18:26.720Z,23.83
2023-03-22T07:18:58.809Z,24.07
2023-03-22T07:19:32.003Z,23.93
2023-03-22T07:20:04.273Z,23.47
2023-03-22T07:20:41.642Z,22.80
2023-03-22T07:21:14.194Z,23.13
2023-03-22T07:21:46.147Z,23.10
2023-03-22T07:22:18.071Z,23.53
2023-03-22T07:22:51.003Z,23.00
2023-03-22T07:23:22.992Z,23.30
2023-03-22T07:23:55.482Z,23.50
2023-03-22T07:24:27.303Z,22.80
2023-03-22T07:25:01.588Z,22.37
2023-03-22T07:25:33.698Z,22.33
2023-03-22T07:26:06.156Z,22.77
2023-03-22T07:26:41.347Z,22.53
2023-03-22T07:27:13.159Z,22.27
2023-03-22T07:27:45.081Z,21.40
2023-03-22T07:28:17.185Z,21.90
2023-03-22T07:28:49.077Z,21.87
2023-03-22T07:29:21.602Z,22.10
2023-03-22T07:29:53.470Z,21.30
2023-03-22T07:30:25.350Z,20.53
2023-03-22T07:31:06.292Z,20.50
2023-03-22T07:31:38.224Z,21.57
2023-03-22T07:32:11.550Z,20.13
2023-03-22T07:32:43.332Z,21.20
2023-03-22T07:33:15.590Z,21.83
2023-03-22T07:33:48.527Z,21.23
2023-03-22T07:34:20.395Z,20.87
2023-03-22T07:34:52.238Z,20.77
2023-03-22T07:35:26.614Z,20.77
2023-03-22T07:35:58.826Z,19.30
2023-03-22T07:36:31.200Z,19.90
2023-03-22T07:37:03.561Z,20.43
2023-03-22T07:37:35.576Z,20.93